Terminal Aerodrome Forecast
Issued by NWS Central Illinois

Home | Current Version | Previous Version | Text Only | Print | Product List | Glossary On
Versions: 1 2 3 4 5 6 7 8 9 10 11 12 13 14 15 16 17 18 19 20 21 22 23 24 25 26 27
202
FTUS43 KILX 192333 AAC
TAFPIA
TAF AMD
KPIA 192333Z 2000/2024 09005KT 2SM -SHRA BR OVC006
     FM200300 VRB03KT 1SM BR VCSH OVC005
     FM200900 00000KT 1/2SM -DZ FG OVC001
     FM201600 VRB03KT 2SM -DZ BR OVC003
     FM201800 18004KT 4SM BR OVC008=

USA.gov is the U.S. government's official web portal to all federal, state and local government web resources and services.